Stad Amsterdam — PECA — position and weather

sailwx.info

Track history (hours):
 
Tides and Currents Weather Stations Pressure Air Temp Water Temp Dewpoint Dewpoint Depression Visibility Wind Speed Wind Dir Waves Ship Positions

Stad Amsterdam (Netherlands)

Ship's website: http://www.stadamsterdam.com/content/home/index.xml

Last reported at 2017-May-24 12:00 UTC. Time now 2017-May-28 08:30 UTC.
Position N 39°54' W 018°06'.

Length 76 m; beam 10 m.

Type: Sailing vessel. MMSI: 246494000.

Wind from 240 at 8 knots

Barometer 1018.7 mb
Air temperature 19.0 ° C
Visibility: greater than 10.8 NM
Dewpoint 15.9 ° C
Water temperature 18.2 ° C

Date/timePositionNaut miles runAvg speedWind from/ knotsBaromVisibWave heightAir tempDewpointWater temp
2017-May-24 12:00N 39°54' W 018°06'143 6.0 240 / 81018.710.8 19.015.918.2
2017-May-23 12:00N 39°42' W 021°12'103 8.6 170 / 161019.710.8 20.816.818.6
2017-May-23 00:00N 39°24' W 023°24'98 8.2 190 / 161020.7 5.4 19.015.918.4
2017-May-22 12:00N 39°12' W 025°30'613.4 200 / 151019.710.8 21.018.018.5
2017-May-22 11:34N 39°15' W 025°36'1 7.6
2017-May-22 11:30N 39°15' W 025°37'4 7.6
2017-May-22 11:00N 39°15' W 025°42'4 8.1
2017-May-22 10:30N 39°14' W 025°47'8 8.6
2017-May-22 09:37N 39°15' W 025°57'1 8.7
2017-May-22 09:30N 39°15' W 025°58'4 8.4
2017-May-22 09:01N 39°15' W 026°03'5 7.9
2017-May-22 08:23N 39°15' W 026°10'3 8.1
2017-May-22 08:00N 39°15' W 026°14'4 8.1
2017-May-22 07:30N 39°14' W 026°19'4 7.9
2017-May-22 07:00N 39°14' W 026°24'19 6.4
2017-May-22 04:01N 39°06' W 026°47'0 3.9
2017-May-22 04:00N 39°06' W 026°47'4 5.0
2017-May-22 03:15N 39°05' W 026°51'2 4.8
2017-May-22 02:49N 39°05' W 026°54'11 4.7
2017-May-22 00:32N 39°05' W 027°08'2 5.5
2017-May-22 00:11N 39°05' W 027°10'1 7.3
2017-May-22 00:00N 39°06' W 027°12'1 6.8 220 / 141017.710.8 18.215.518.0
2017-May-21 23:53N 39°05' W 027°13'2 5.6
2017-May-21 23:30N 39°05' W 027°15'4 4.9
2017-May-21 22:47N 39°05' W 027°20'1 5.0
2017-May-21 22:30N 39°05' W 027°22'2 4.8
2017-May-21 22:00N 39°03' W 027°24'2 3.4
2017-May-21 21:30N 39°03' W 027°26'2 3.4
2017-May-21 21:01N 39°02' W 027°28'2 4.2
2017-May-21 20:30N 39°02' W 027°31'2 4.2
2017-May-21 20:00N 39°01' W 027°34'2 4.0
2017-May-21 19:30N 39°01' W 027°36'2 4.4
2017-May-21 19:00N 39°00' W 027°39'2 4.6
2017-May-21 18:30N 38°59' W 027°42'2 4.4
2017-May-21 18:00N 38°59' W 027°44'4 7.3
2017-May-21 17:30N 38°57' W 027°49'4 8.7
2017-May-21 17:00N 38°56' W 027°54'4 7.7
2017-May-21 16:30N 38°54' W 027°58'3 6.5
2017-May-21 16:00N 38°53' W 028°02'3 6.0
2017-May-21 15:30N 38°52' W 028°06'3 6.8
2017-May-21 15:00N 38°50' W 028°10'7 7.1
2017-May-21 14:00N 38°47' W 028°18'3 6.7
2017-May-21 13:30N 38°46' W 028°22'3 5.8
2017-May-21 13:00N 38°44' W 028°24'3 6.0
2017-May-21 12:30N 38°42' W 028°27'3 5.8
2017-May-21 12:01N 38°40' W 028°30'3 5.7
2017-May-21 11:30N 38°37' W 028°32'3 5.8
2017-May-21 11:00N 38°35' W 028°34'2 4.7
2017-May-21 10:30N 38°33' W 028°35'2 2.9
2017-May-21 09:58N 38°32' W 028°37'0 0.0
2017-May-21 09:28N 38°32' W 028°37'0 0.0
2017-May-21 08:58N 38°32' W 028°37'0 0.0
2017-May-21 08:28N 38°32' W 028°37'0 0.0
2017-May-21 07:58N 38°32' W 028°37'0 0.0
2017-May-21 07:28N 38°32' W 028°37'0 0.0
2017-May-21 06:58N 38°32' W 028°37'0 0.0
2017-May-21 06:28N 38°32' W 028°37'0 0.0
2017-May-21 05:58N 38°32' W 028°37'0 0.0
2017-May-21 05:28N 38°32' W 028°37'0 0.0
2017-May-21 04:58N 38°32' W 028°37'0 0.0
2017-May-21 04:28N 38°32' W 028°37'0 0.0
2017-May-21 03:58N 38°32' W 028°37'0 0.0
2017-May-21 03:28N 38°32' W 028°37'0 0.0
2017-May-21 02:58N 38°32' W 028°37'0 0.0
2017-May-21 02:28N 38°32' W 028°37'0 0.0
2017-May-21 01:58N 38°32' W 028°37'0 0.0
2017-May-21 01:25N 38°32' W 028°37'0 0.0
2017-May-21 00:58N 38°32' W 028°37'0 0.0
2017-May-21 00:28N 38°32' W 028°37'0 0.0
2017-May-20 23:58N 38°32' W 028°37'0 0.0
2017-May-20 23:28N 38°32' W 028°37'0 0.0
2017-May-20 22:58N 38°32' W 028°37'0 0.0
2017-May-20 22:28N 38°32' W 028°37'0 0.0
2017-May-20 21:58N 38°32' W 028°37'0 0.0
2017-May-20 21:28N 38°32' W 028°37'0 0.0
2017-May-20 20:58N 38°32' W 028°37'0 0.0
2017-May-20 20:28N 38°32' W 028°37'0 0.0
2017-May-20 19:58N 38°32' W 028°37'0 0.0
2017-May-20 19:28N 38°32' W 028°37'0 0.0
2017-May-20 18:58N 38°32' W 028°37'0 0.0
2017-May-20 18:28N 38°32' W 028°37'0 0.0
2017-May-20 17:58N 38°32' W 028°37'0 0.0
2017-May-20 17:28N 38°32' W 028°37'0 0.0
2017-May-20 16:58N 38°32' W 028°37'0 0.0
2017-May-20 16:28N 38°32' W 028°37'0 0.0
2017-May-20 15:58N 38°32' W 028°37'0 0.0
2017-May-20 15:28N 38°32' W 028°37'0 0.0
2017-May-20 14:58N 38°32' W 028°37'0 0.0
2017-May-20 13:58N 38°32' W 028°37'0 0.0
2017-May-20 13:28N 38°32' W 028°37'0 0.0
2017-May-20 12:58N 38°32' W 028°37'0 0.0
2017-May-20 12:28N 38°32' W 028°37'0 0.0
2017-May-20 11:58N 38°32' W 028°37'0 0.0
2017-May-20 11:28N 38°32' W 028°37'0 0.0
2017-May-20 10:55N 38°32' W 028°37'0 0.0
2017-May-20 10:28N 38°32' W 028°37'0 0.0
2017-May-20 09:58N 38°32' W 028°37'0 0.0
2017-May-20 09:28N 38°32' W 028°37'0 0.0
2017-May-20 08:58N 38°32' W 028°37'0 0.0
2017-May-20 08:25N 38°32' W 028°37'0 0.0
2017-May-20 07:58N 38°32' W 028°37'0 0.0
2017-May-20 07:28N 38°32' W 028°37'0 0.0
2017-May-20 06:58N 38°32' W 028°37'0 0.0
2017-May-20 06:28N 38°32' W 028°37'0 0.0
2017-May-20 05:58N 38°32' W 028°37'0 0.0
2017-May-20 05:28N 38°32' W 028°37'0 0.0
2017-May-20 04:58N 38°32' W 028°37'0 0.0
2017-May-20 04:28N 38°32' W 028°37'0 0.0
2017-May-20 03:58N 38°32' W 028°37'0 0.0
2017-May-20 03:28N 38°32' W 028°37'0 0.0
2017-May-20 02:58N 38°32' W 028°37'0 0.0
2017-May-20 02:28N 38°32' W 028°37'0 0.0
2017-May-20 01:58N 38°32' W 028°37'0 0.0
2017-May-20 01:28N 38°32' W 028°37'0 0.0
2017-May-20 00:58N 38°32' W 028°37'0 0.0
2017-May-20 00:28N 38°32' W 028°37'0 0.0
2017-May-19 23:58N 38°32' W 028°37'0 0.0
2017-May-19 23:28N 38°32' W 028°37'0 0.0
2017-May-19 22:58N 38°32' W 028°37'0 0.0
2017-May-19 22:28N 38°32' W 028°37'0 0.0
2017-May-19 21:58N 38°32' W 028°37'0 0.0
2017-May-19 21:28N 38°32' W 028°37'0 0.0
2017-May-19 20:58N 38°32' W 028°37'0 0.0
2017-May-19 20:28N 38°32' W 028°37'0 0.0
2017-May-19 19:58N 38°32' W 028°37'0 0.0
2017-May-19 19:28N 38°32' W 028°37'0 0.0
2017-May-19 18:58N 38°32' W 028°37'0 0.0
2017-May-19 18:28N 38°32' W 028°37'0 0.0
2017-May-19 17:58N 38°32' W 028°37'0 0.0
2017-May-19 17:28N 38°32' W 028°37'0 0.0
2017-May-19 16:58N 38°32' W 028°37'0 0.0
2017-May-19 16:28N 38°32' W 028°37'0 0.0
2017-May-19 15:58N 38°32' W 028°37'0 0.0
2017-May-19 15:28N 38°32' W 028°37'0 0.0
2017-May-19 14:58N 38°32' W 028°37'0 0.0
2017-May-19 13:58N 38°32' W 028°37'0 0.0
2017-May-19 13:25N 38°32' W 028°37'0 0.0
2017-May-19 12:58N 38°32' W 028°37'0 0.0
2017-May-19 12:28N 38°32' W 028°37'0 0.0
2017-May-19 11:58N 38°32' W 028°37'0 0.0
2017-May-19 11:28N 38°32' W 028°37'0 0.0
2017-May-19 10:58N 38°32' W 028°37'0 0.0
2017-May-19 10:28N 38°32' W 028°37'0 0.0
2017-May-19 09:58N 38°32' W 028°37'0 0.0
2017-May-19 09:28N 38°32' W 028°37'0 0.0
2017-May-19 08:58N 38°32' W 028°37'0 0.0
2017-May-19 08:25N 38°32' W 028°37'0 0.0
2017-May-19 07:52N 38°32' W 028°37'0 0.0
2017-May-19 07:28N 38°32' W 028°37'0 0.0
2017-May-19 06:58N 38°32' W 028°37'0 0.0
2017-May-19 06:28N 38°32' W 028°37'0 0.0
2017-May-19 05:58N 38°32' W 028°37'0 0.0
2017-May-19 05:28N 38°32' W 028°37'0 0.0
2017-May-19 04:58N 38°32' W 028°37'0 0.0
2017-May-19 04:28N 38°32' W 028°37'0 0.0
2017-May-19 03:58N 38°32' W 028°37'0 0.0
2017-May-19 03:28N 38°32' W 028°37'0 0.0
2017-May-19 02:58N 38°32' W 028°37'0 0.0
2017-May-19 02:28N 38°32' W 028°37'0 0.0
2017-May-19 01:58N 38°32' W 028°37'0 0.0
2017-May-19 01:28N 38°32' W 028°37'0 0.0
2017-May-19 00:58N 38°32' W 028°37'0 0.0
2017-May-19 00:28N 38°32' W 028°37'0 0.0
2017-May-18 23:58N 38°32' W 028°37'0 0.0
2017-May-18 23:28N 38°32' W 028°37'0 0.0
2017-May-18 22:58N 38°32' W 028°37'0 0.0
2017-May-18 22:28N 38°32' W 028°37'0 0.0
2017-May-18 21:58N 38°32' W 028°37'0 0.0
2017-May-18 21:28N 38°32' W 028°37'0 0.0
2017-May-18 20:58N 38°32' W 028°37'0 0.0
2017-May-18 20:28N 38°32' W 028°37'0 0.0
2017-May-18 19:55N 38°32' W 028°37'0 0.0
2017-May-18 19:28N 38°32' W 028°37'0 0.0
2017-May-18 18:58N 38°32' W 028°37'0 0.0
2017-May-18 18:28N 38°32' W 028°37'0 0.0
2017-May-18 17:58N 38°32' W 028°37'0 0.0
2017-May-18 17:28N 38°32' W 028°37'0 0.0
2017-May-18 16:55N 38°32' W 028°37'0 0.0
2017-May-18 16:28N 38°32' W 028°37'0 0.0
2017-May-18 15:58N 38°32' W 028°37'0 0.0
2017-May-18 15:28N 38°32' W 028°37'0 0.0
2017-May-18 14:58N 38°32' W 028°37'0 0.0
2017-May-18 13:55N 38°32' W 028°37'0 0.0
2017-May-18 13:28N 38°32' W 028°37'0 0.0
2017-May-18 12:58N 38°32' W 028°37'0 0.0
2017-May-18 12:28N 38°32' W 028°37'0 0.0
2017-May-18 11:58N 38°32' W 028°37'0 0.0
2017-May-18 11:29N 38°32' W 028°37'0 0.3
2017-May-18 11:01N 38°32' W 028°37'1 1.8
2017-May-18 10:30N 38°32' W 028°36'3 6.4
2017-May-18 10:00N 38°35' W 028°34'4 7.1
2017-May-18 09:30N 38°38' W 028°31'4 7.3
2017-May-18 09:01N 38°41' W 028°29'4 7.2
2017-May-18 08:30N 38°44' W 028°26'4 7.3
2017-May-18 08:00N 38°46' W 028°23'4 7.4
2017-May-18 07:30N 38°47' W 028°18'4 7.2
2017-May-18 07:00N 38°48' W 028°14'4 7.5
2017-May-18 06:29N 38°48' W 028°09'3 7.3
2017-May-18 06:00N 38°48' W 028°04'4 6.7
2017-May-18 05:24N 38°48' W 027°59'2 5.1
2017-May-18 05:00N 38°48' W 027°56'2 3.2
2017-May-18 04:30N 38°48' W 027°55'2 3.1
2017-May-18 03:56N 38°48' W 027°52'1 2.7
2017-May-18 03:30N 38°48' W 027°51'1 2.4
2017-May-18 02:54N 38°48' W 027°49'2 2.4
2017-May-18 02:16N 38°49' W 027°47'3 2.6
2017-May-18 01:00N 38°49' W 027°43'9 3.3
2017-May-17 22:06N 38°49' W 027°31'  
2017-May-15 08:30N 38°37' W 027°06'8 6.1
2017-May-15 07:15N 38°33' W 027°14'2 6.8
2017-May-15 06:58N 38°32' W 027°16'4 7.4
2017-May-15 06:29N 38°31' W 027°20'4 7.4
2017-May-15 06:01N 38°29' W 027°24'4 8.7
2017-May-15 05:30N 38°28' W 027°29'4 8.5
2017-May-15 05:00N 38°27' W 027°35'4 7.3
2017-May-15 04:30N 38°25' W 027°39'3 6.4
2017-May-15 04:00N 38°24' W 027°43'4 9.0
2017-May-15 03:30N 38°23' W 027°48'710.5
2017-May-15 02:51N 38°20' W 027°56'3 8.8
2017-May-15 02:30N 38°19' W 028°00'4 8.8
2017-May-15 02:00N 38°19' W 028°06'510.0
2017-May-15 01:30N 38°19' W 028°12'4 9.0
2017-May-15 01:01N 38°18' W 028°18'4 7.4
2017-May-15 00:30N 38°18' W 028°22'4 7.7
2017-May-15 00:00N 38°18' W 028°27'4 8.5
2017-May-14 23:31N 38°17' W 028°33'5 9.3
2017-May-14 23:00N 38°17' W 028°39'5 9.8
2017-May-14 22:30N 38°17' W 028°45'5 9.7
2017-May-14 22:00N 38°17' W 028°51'510.1
2017-May-14 21:30N 38°17' W 028°57'510.7
2017-May-14 21:00N 38°17' W 029°04'510.7
2017-May-14 20:30N 38°17' W 029°11'510.9
2017-May-14 20:00N 38°17' W 029°18'510.9
2017-May-14 19:30N 38°17' W 029°25'611.1
2017-May-14 19:00N 38°17' W 029°32'510.9
2017-May-14 18:30N 38°17' W 029°39'611.0
2017-May-14 18:00N 38°17' W 029°46'610.8
2017-May-14 17:29N 38°16' W 029°53'510.8
2017-May-14 17:00N 38°15' W 029°60'610.9
2017-May-14 16:30N 38°15' W 030°07'  
Track history (hours):
 
Tides and Currents Weather Stations Pressure Air Temp Water Temp Dewpoint Dewpoint Depression Visibility Wind Speed Wind Dir Waves Ship Positions

Stad Amsterdam (Netherlands)

Ship's website: http://www.stadamsterdam.com/content/home/index.xml

Last reported at 2017-May-24 12:00 UTC. Time now 2017-May-28 08:30 UTC.
Position N 39°54' W 018°06'.

Length 76 m; beam 10 m.

Type: Sailing vessel. MMSI: 246494000.

Wind from 240 at 8 knots

Barometer 1018.7 mb
Air temperature 19.0 ° C
Visibility: greater than 10.8 NM
Dewpoint 15.9 ° C
Water temperature 18.2 ° C

Date/timePositionNaut miles runAvg speedWind from/ knotsBaromVisibWave heightAir tempDewpointWater temp
2017-May-24 12:00N 39°54' W 018°06'143 6.0 240 / 81018.710.8 19.015.918.2
2017-May-23 12:00N 39°42' W 021°12'103 8.6 170 / 161019.710.8 20.816.818.6
2017-May-23 00:00N 39°24' W 023°24'98 8.2 190 / 161020.7 5.4 19.015.918.4
2017-May-22 12:00N 39°12' W 025°30'613.4 200 / 151019.710.8 21.018.018.5
2017-May-22 11:34N 39°15' W 025°36'1 7.6
2017-May-22 11:30N 39°15' W 025°37'4 7.6
2017-May-22 11:00N 39°15' W 025°42'4 8.1
2017-May-22 10:30N 39°14' W 025°47'8 8.6
2017-May-22 09:37N 39°15' W 025°57'1 8.7
2017-May-22 09:30N 39°15' W 025°58'4 8.4
2017-May-22 09:01N 39°15' W 026°03'5 7.9
2017-May-22 08:23N 39°15' W 026°10'3 8.1
2017-May-22 08:00N 39°15' W 026°14'4 8.1
2017-May-22 07:30N 39°14' W 026°19'4 7.9
2017-May-22 07:00N 39°14' W 026°24'19 6.4
2017-May-22 04:01N 39°06' W 026°47'0 3.9
2017-May-22 04:00N 39°06' W 026°47'4 5.0
2017-May-22 03:15N 39°05' W 026°51'2 4.8
2017-May-22 02:49N 39°05' W 026°54'11 4.7
2017-May-22 00:32N 39°05' W 027°08'2 5.5
2017-May-22 00:11N 39°05' W 027°10'1 7.3
2017-May-22 00:00N 39°06' W 027°12'1 6.8 220 / 141017.710.8 18.215.518.0
2017-May-21 23:53N 39°05' W 027°13'2 5.6
2017-May-21 23:30N 39°05' W 027°15'4 4.9
2017-May-21 22:47N 39°05' W 027°20'1 5.0
2017-May-21 22:30N 39°05' W 027°22'2 4.8
2017-May-21 22:00N 39°03' W 027°24'2 3.4
2017-May-21 21:30N 39°03' W 027°26'2 3.4
2017-May-21 21:01N 39°02' W 027°28'2 4.2
2017-May-21 20:30N 39°02' W 027°31'2 4.2
2017-May-21 20:00N 39°01' W 027°34'2 4.0
2017-May-21 19:30N 39°01' W 027°36'2 4.4
2017-May-21 19:00N 39°00' W 027°39'2 4.6
2017-May-21 18:30N 38°59' W 027°42'2 4.4
2017-May-21 18:00N 38°59' W 027°44'4 7.3
2017-May-21 17:30N 38°57' W 027°49'4 8.7
2017-May-21 17:00N 38°56' W 027°54'4 7.7
2017-May-21 16:30N 38°54' W 027°58'3 6.5
2017-May-21 16:00N 38°53' W 028°02'3 6.0
2017-May-21 15:30N 38°52' W 028°06'3 6.8
2017-May-21 15:00N 38°50' W 028°10'7 7.1
2017-May-21 14:00N 38°47' W 028°18'3 6.7
2017-May-21 13:30N 38°46' W 028°22'3 5.8
2017-May-21 13:00N 38°44' W 028°24'3 6.0
2017-May-21 12:30N 38°42' W 028°27'3 5.8
2017-May-21 12:01N 38°40' W 028°30'3 5.7
2017-May-21 11:30N 38°37' W 028°32'3 5.8
2017-May-21 11:00N 38°35' W 028°34'2 4.7
2017-May-21 10:30N 38°33' W 028°35'2 2.9
2017-May-21 09:58N 38°32' W 028°37'0 0.0
2017-May-21 09:28N 38°32' W 028°37'0 0.0
2017-May-21 08:58N 38°32' W 028°37'0 0.0
2017-May-21 08:28N 38°32' W 028°37'0 0.0
2017-May-21 07:58N 38°32' W 028°37'0 0.0
2017-May-21 07:28N 38°32' W 028°37'0 0.0
2017-May-21 06:58N 38°32' W 028°37'0 0.0
2017-May-21 06:28N 38°32' W 028°37'0 0.0
2017-May-21 05:58N 38°32' W 028°37'0 0.0
2017-May-21 05:28N 38°32' W 028°37'0 0.0
2017-May-21 04:58N 38°32' W 028°37'0 0.0
2017-May-21 04:28N 38°32' W 028°37'0 0.0
2017-May-21 03:58N 38°32' W 028°37'0 0.0
2017-May-21 03:28N 38°32' W 028°37'0 0.0
2017-May-21 02:58N 38°32' W 028°37'0 0.0
2017-May-21 02:28N 38°32' W 028°37'0 0.0
2017-May-21 01:58N 38°32' W 028°37'0 0.0
2017-May-21 01:25N 38°32' W 028°37'0 0.0
2017-May-21 00:58N 38°32' W 028°37'0 0.0
2017-May-21 00:28N 38°32' W 028°37'0 0.0
2017-May-20 23:58N 38°32' W 028°37'0 0.0
2017-May-20 23:28N 38°32' W 028°37'0 0.0
2017-May-20 22:58N 38°32' W 028°37'0 0.0
2017-May-20 22:28N 38°32' W 028°37'0 0.0
2017-May-20 21:58N 38°32' W 028°37'0 0.0
2017-May-20 21:28N 38°32' W 028°37'0 0.0
2017-May-20 20:58N 38°32' W 028°37'0 0.0
2017-May-20 20:28N 38°32' W 028°37'0 0.0
2017-May-20 19:58N 38°32' W 028°37'0 0.0
2017-May-20 19:28N 38°32' W 028°37'0 0.0
2017-May-20 18:58N 38°32' W 028°37'0 0.0
2017-May-20 18:28N 38°32' W 028°37'0 0.0
2017-May-20 17:58N 38°32' W 028°37'0 0.0
2017-May-20 17:28N 38°32' W 028°37'0 0.0
2017-May-20 16:58N 38°32' W 028°37'0 0.0
2017-May-20 16:28N 38°32' W 028°37'0 0.0
2017-May-20 15:58N 38°32' W 028°37'0 0.0
2017-May-20 15:28N 38°32' W 028°37'0 0.0
2017-May-20 14:58N 38°32' W 028°37'0 0.0
2017-May-20 13:58N 38°32' W 028°37'0 0.0
2017-May-20 13:28N 38°32' W 028°37'0 0.0
2017-May-20 12:58N 38°32' W 028°37'0 0.0
2017-May-20 12:28N 38°32' W 028°37'0 0.0
2017-May-20 11:58N 38°32' W 028°37'0 0.0
2017-May-20 11:28N 38°32' W 028°37'0 0.0
2017-May-20 10:55N 38°32' W 028°37'0 0.0
2017-May-20 10:28N 38°32' W 028°37'0 0.0
2017-May-20 09:58N 38°32' W 028°37'0 0.0
2017-May-20 09:28N 38°32' W 028°37'0 0.0
2017-May-20 08:58N 38°32' W 028°37'0 0.0
2017-May-20 08:25N 38°32' W 028°37'0 0.0
2017-May-20 07:58N 38°32' W 028°37'0 0.0
2017-May-20 07:28N 38°32' W 028°37'0 0.0
2017-May-20 06:58N 38°32' W 028°37'0 0.0
2017-May-20 06:28N 38°32' W 028°37'0 0.0
2017-May-20 05:58N 38°32' W 028°37'0 0.0
2017-May-20 05:28N 38°32' W 028°37'0 0.0
2017-May-20 04:58N 38°32' W 028°37'0 0.0
2017-May-20 04:28N 38°32' W 028°37'0 0.0
2017-May-20 03:58N 38°32' W 028°37'0 0.0
2017-May-20 03:28N 38°32' W 028°37'0 0.0
2017-May-20 02:58N 38°32' W 028°37'0 0.0
2017-May-20 02:28N 38°32' W 028°37'0 0.0
2017-May-20 01:58N 38°32' W 028°37'0 0.0
2017-May-20 01:28N 38°32' W 028°37'0 0.0
2017-May-20 00:58N 38°32' W 028°37'0 0.0
2017-May-20 00:28N 38°32' W 028°37'0 0.0
2017-May-19 23:58N 38°32' W 028°37'0 0.0
2017-May-19 23:28N 38°32' W 028°37'0 0.0
2017-May-19 22:58N 38°32' W 028°37'0 0.0
2017-May-19 22:28N 38°32' W 028°37'0 0.0
2017-May-19 21:58N 38°32' W 028°37'0 0.0
2017-May-19 21:28N 38°32' W 028°37'0 0.0
2017-May-19 20:58N 38°32' W 028°37'0 0.0
2017-May-19 20:28N 38°32' W 028°37'0 0.0
2017-May-19 19:58N 38°32' W 028°37'0 0.0
2017-May-19 19:28N 38°32' W 028°37'0 0.0
2017-May-19 18:58N 38°32' W 028°37'0 0.0
2017-May-19 18:28N 38°32' W 028°37'0 0.0
2017-May-19 17:58N 38°32' W 028°37'0 0.0
2017-May-19 17:28N 38°32' W 028°37'0 0.0
2017-May-19 16:58N 38°32' W 028°37'0 0.0
2017-May-19 16:28N 38°32' W 028°37'0 0.0
2017-May-19 15:58N 38°32' W 028°37'0 0.0
2017-May-19 15:28N 38°32' W 028°37'0 0.0
2017-May-19 14:58N 38°32' W 028°37'0 0.0
2017-May-19 13:58N 38°32' W 028°37'0 0.0
2017-May-19 13:25N 38°32' W 028°37'0 0.0
2017-May-19 12:58N 38°32' W 028°37'0 0.0
2017-May-19 12:28N 38°32' W 028°37'0 0.0
2017-May-19 11:58N 38°32' W 028°37'0 0.0
2017-May-19 11:28N 38°32' W 028°37'0 0.0
2017-May-19 10:58N 38°32' W 028°37'0 0.0
2017-May-19 10:28N 38°32' W 028°37'0 0.0
2017-May-19 09:58N 38°32' W 028°37'0 0.0
2017-May-19 09:28N 38°32' W 028°37'0 0.0
2017-May-19 08:58N 38°32' W 028°37'0 0.0
2017-May-19 08:25N 38°32' W 028°37'0 0.0
2017-May-19 07:52N 38°32' W 028°37'0 0.0
2017-May-19 07:28N 38°32' W 028°37'0 0.0
2017-May-19 06:58N 38°32' W 028°37'0 0.0
2017-May-19 06:28N 38°32' W 028°37'0 0.0
2017-May-19 05:58N 38°32' W 028°37'0 0.0
2017-May-19 05:28N 38°32' W 028°37'0 0.0
2017-May-19 04:58N 38°32' W 028°37'0 0.0
2017-May-19 04:28N 38°32' W 028°37'0 0.0
2017-May-19 03:58N 38°32' W 028°37'0 0.0
2017-May-19 03:28N 38°32' W 028°37'0 0.0
2017-May-19 02:58N 38°32' W 028°37'0 0.0
2017-May-19 02:28N 38°32' W 028°37'0 0.0
2017-May-19 01:58N 38°32' W 028°37'0 0.0
2017-May-19 01:28N 38°32' W 028°37'0 0.0
2017-May-19 00:58N 38°32' W 028°37'0 0.0
2017-May-19 00:28N 38°32' W 028°37'0 0.0
2017-May-18 23:58N 38°32' W 028°37'0 0.0
2017-May-18 23:28N 38°32' W 028°37'0 0.0
2017-May-18 22:58N 38°32' W 028°37'0 0.0
2017-May-18 22:28N 38°32' W 028°37'0 0.0
2017-May-18 21:58N 38°32' W 028°37'0 0.0
2017-May-18 21:28N 38°32' W 028°37'0 0.0
2017-May-18 20:58N 38°32' W 028°37'0 0.0
2017-May-18 20:28N 38°32' W 028°37'0 0.0
2017-May-18 19:55N 38°32' W 028°37'0 0.0
2017-May-18 19:28N 38°32' W 028°37'0 0.0
2017-May-18 18:58N 38°32' W 028°37'0 0.0
2017-May-18 18:28N 38°32' W 028°37'0 0.0
2017-May-18 17:58N 38°32' W 028°37'0 0.0
2017-May-18 17:28N 38°32' W 028°37'0 0.0
2017-May-18 16:55N 38°32' W 028°37'0 0.0
2017-May-18 16:28N 38°32' W 028°37'0 0.0
2017-May-18 15:58N 38°32' W 028°37'0 0.0
2017-May-18 15:28N 38°32' W 028°37'0 0.0
2017-May-18 14:58N 38°32' W 028°37'0 0.0
2017-May-18 13:55N 38°32' W 028°37'0 0.0
2017-May-18 13:28N 38°32' W 028°37'0 0.0
2017-May-18 12:58N 38°32' W 028°37'0 0.0
2017-May-18 12:28N 38°32' W 028°37'0 0.0
2017-May-18 11:58N 38°32' W 028°37'0 0.0
2017-May-18 11:29N 38°32' W 028°37'0 0.3
2017-May-18 11:01N 38°32' W 028°37'1 1.8
2017-May-18 10:30N 38°32' W 028°36'3 6.4
2017-May-18 10:00N 38°35' W 028°34'4 7.1
2017-May-18 09:30N 38°38' W 028°31'4 7.3
2017-May-18 09:01N 38°41' W 028°29'4 7.2
2017-May-18 08:30N 38°44' W 028°26'4 7.3
2017-May-18 08:00N 38°46' W 028°23'4 7.4
2017-May-18 07:30N 38°47' W 028°18'4 7.2
2017-May-18 07:00N 38°48' W 028°14'4 7.5
2017-May-18 06:29N 38°48' W 028°09'3 7.3
2017-May-18 06:00N 38°48' W 028°04'4 6.7
2017-May-18 05:24N 38°48' W 027°59'2 5.1
2017-May-18 05:00N 38°48' W 027°56'2 3.2
2017-May-18 04:30N 38°48' W 027°55'2 3.1
2017-May-18 03:56N 38°48' W 027°52'1 2.7
2017-May-18 03:30N 38°48' W 027°51'1 2.4
2017-May-18 02:54N 38°48' W 027°49'2 2.4
2017-May-18 02:16N 38°49' W 027°47'3 2.6
2017-May-18 01:00N 38°49' W 027°43'9 3.3
2017-May-17 22:06N 38°49' W 027°31'  
2017-May-15 08:30N 38°37' W 027°06'8 6.1
2017-May-15 07:15N 38°33' W 027°14'2 6.8
2017-May-15 06:58N 38°32' W 027°16'4 7.4
2017-May-15 06:29N 38°31' W 027°20'4 7.4
2017-May-15 06:01N 38°29' W 027°24'4 8.7
2017-May-15 05:30N 38°28' W 027°29'4 8.5
2017-May-15 05:00N 38°27' W 027°35'4 7.3
2017-May-15 04:30N 38°25' W 027°39'3 6.4
2017-May-15 04:00N 38°24' W 027°43'4 9.0
2017-May-15 03:30N 38°23' W 027°48'710.5
2017-May-15 02:51N 38°20' W 027°56'3 8.8
2017-May-15 02:30N 38°19' W 028°00'4 8.8
2017-May-15 02:00N 38°19' W 028°06'510.0
2017-May-15 01:30N 38°19' W 028°12'4 9.0
2017-May-15 01:01N 38°18' W 028°18'4 7.4
2017-May-15 00:30N 38°18' W 028°22'4 7.7
2017-May-15 00:00N 38°18' W 028°27'4 8.5
2017-May-14 23:31N 38°17' W 028°33'5 9.3
2017-May-14 23:00N 38°17' W 028°39'5 9.8
2017-May-14 22:30N 38°17' W 028°45'5 9.7
2017-May-14 22:00N 38°17' W 028°51'510.1
2017-May-14 21:30N 38°17' W 028°57'510.7
2017-May-14 21:00N 38°17' W 029°04'510.7
2017-May-14 20:30N 38°17' W 029°11'510.9
2017-May-14 20:00N 38°17' W 029°18'510.9
2017-May-14 19:30N 38°17' W 029°25'611.1
2017-May-14 19:00N 38°17' W 029°32'510.9
2017-May-14 18:30N 38°17' W 029°39'611.0
2017-May-14 18:00N 38°17' W 029°46'610.8
2017-May-14 17:29N 38°16' W 029°53'510.8
2017-May-14 17:00N 38°15' W 029°60'610.9
2017-May-14 16:30N 38°15' W 030°07'  

Dump ship's entire track history